Strona główna
METAR-TAF:

METAR-TAF

Lotnisko :

Port lotniczy Locarno

Locarno, Szwajcaria

Szerokość geograficzna: 46-09-55N, Długość geograficzna: 8-52-40E, wysokość: 198 m

Aktualna obserwacja pogody

Raport powstał 33 minut temu, godzina 11:20 UTC
Wiatr 2 kt od wschód
Temperatura 6°C
Wilgotność 100%
Ciśnienie 1021 hPa
Widzialność: 5000 m
Mało chmury na wysokości 1700 ft
Rozproszone chmury na wysokości 2600 ft
słaby deszcz

METAR: LSZL 161120Z AUTO 10002KT 5000NDV -RA FEW017 SCT026 06/06 Q1021 RMK

czas: 12:53 (11:53 UTC)

Prognoza

Raport powstał 28 minut temu, godzina 11:25 UTC
Prognoza ważna od 16 godzina 12 UTC do 16 godzina 21 UTC
Wiatr 3 kt z kierunków zmiennych
Widzialność: 5000 m
Mało chmury na wysokości 2500 ft
Rozproszone chmury na wysokości 3900 ft
Przerywane chmury na wysokości 4700 ft
deszcz
Przejściowo
od 16 godzina 12 UTC do 16 godzina 21 UTC
Widzialność: 4500 m
mżawka, zamglenie

TAF: LSZL 161125Z 1612/1621 VRB03KT 5000 RA FEW025 SCT039 BKN047 TEMPO 1612/1621 4500 DZ BR

Obserwacja i prognoza pogody dla ponad 4000 lotnisk (raport METAR i TAF).

Dostępne stacje oznaczono żółtymi i czerwonymi punktami na mapie.

Najedź kursorem aby zobaczyć nazwę stacji.

Kliknij aby zobaczyć obserwacje i prognozy pogody.

Aby zmienić mapę: kliknij na zielony przycisk z czarnym krzyżykiem, aby powiększyć; na zielony przycisk z myślnikiem, aby pomniejszyć; na zielone strzałki, aby przejść do map sąsiednich.


METAR-TAF: